Αρχική σελίδα
METAR-TAF:

METAR-TAF

Αεροδρόμια :

Αγκάνα, Γκουάμ, Ηνωμένες Πολιτείες Αμερικής

γεωγραφικό πλάτος: 13-29N, γεωγραφικό μήκος: 144-48E, υψόμετρο: 91 μ

Παρών καιρός

Η αναφορά έγινε 17 λεπτά πριν, στις 21:54 UTC
Άνεμος 4 kt από Ν
Θερμοκρασία 27°C
Υγρασία 100%
Πίεση 1010 hPa
Ορατότητα: 16.1 χλμ
Λίγα νέφη σε ύψος 800 πόδια
Διάσπαρτα νέφη σε ύψος 4800 πόδια
Αρκετά νέφη σε ύψος 7000 πόδια

METAR: PGUM 242154Z 17004KT 10SM FEW008 SCT048 BKN070 27/27 A2982 RMK AO2 SLP088 T02720272

Χρόνος: 08:11 (22:11 UTC)

Πρόγνωση Καιρού

Η αναφορά έγινε 4 ώρες και 43 λεπτά πριν, στις 17:28 UTC
Η πρόγνωση ισχύει από τις 24 στις 18 UTC έως τις 25 στις 24 UTC
Άνεμος 7 kt από ΝΔ
Ορατότητα: 10 χλμ
Διάσπαρτα νέφη σε ύψος 1800 πόδια
Διάσπαρτα νέφη σε ύψος 3000 πόδια
Αρκετά νέφη σε ύψος 12000 πόδια
Όμβροι σε κοντινή απόσταση

TAF: PGUM 241728Z 2418/2524 22007KT P6SM VCSH SCT018 SCT030 BKN120

Μετεωρολογικές αναφορές και προγνώσεις για περισσότερα από 4000 αεροδρόμια (δελτία METAR και TAF).

Οι διαθέσιμοι σταθμοί απεικονίζονται στο χάρτη με κίτρινες και κόκκινες κουκκίδες.

Μετακινήστε το ποντίκι πάνω από τις κουκκίδες για να δείτε το όνομα του σταθμού.

Στη συνέχεια, κάντε κλικ για να δείτε τις μετεωρολογικές αναφορές και τις προγνώσεις καιρού.

Για να αλλάξετε το χάρτη: κάντε κλικ στα πράσινα κουμπιά με τον μαύρο σταυρό για να ζουμάρετε, στο πράσινο κουμπί με την παύλα για να αφαιρέσετε το ζουμ ή στα πράσινα βέλη για να αντιπαραβάλλετε χάρτες.


METAR-TAF: